Aérodrome :
LOGIN :

S'inscrire | Disclaimer

   EN    FR    IT 

 










Légende :    VFR   VFR Marginal   IFR   IFR Intensif   IFR Très Intensif
Visi : 
Plafond : 
>= 8 km
>= 3000ft
5 à 8 km
1000 à 3000 ft
1500m à 5 km
500 à 1000 ft
800 à 1500m
200 à 500 ft
< 800m
< 200 ft
Symboles :   Orages  Brouillard  Fortes neiges  Fortes précipitations  Vent > 20 kt
SIGMETs :   Divers  Orages  Givrage  Turbulence  Onde Orograph.  Cendres Volcan.







- Altitude de l'aérodrome : 33 ft
- Code IATA : MHZ


EGUN - RAF Mildenhall

DERNIER METAR :
  • 222143Z AUTO 10008KT 9999 OVC049 07/07 A2985 RMK AO2

METARs EXPIRÉS :
  • 222128Z AUTO 11008KT 9999 OVC050 07/07 A2985 RMK AO2
  • 222103Z AUTO 12009KT 9999 BKN047 BKN055 OVC075 07/07 A2984 RMK AO2
  • 221958Z AUTO 13006KT 9999 FEW055 07/07 A2982 RMK AO2 SLP102 T00650065
  • 221858Z AUTO 14006KT 9999 BKN060 BKN130 07/07 A2980 RMK AO2 SLP095 T00680068

TAF TAF EGUN
Valide du 22 à 20h jusqu'au 24 à 02h UTC


222003Z 2220/2402 15012KT 9999 SCT050 QNH2970INS
BECMG 2223/2224 VRB06KT 4800 -SHRA BR BKN015 610606 QNH2975INS
BECMG 2306/2307 09010G20KT 9999 NSW SCT020 BKN100 QNH2992INS
TEMPO 2309/2317 08015G30KT BKN020
BECMG 2316/2317 03012KT 9999 BKN015 QNH3015INS
BECMG 2323/2324 03012KT 9999 BKN007 QNH3020INS TX10/2316Z TN04/2306Z
Pas de NOTAMs connus pour ce terrain.



MET'MAP, la Météo Aéronautique d'un coup d'oeil ! - Copyright ORBIFLY Décembre 2007 - Disclaimer

ORBIFLY MET'MAP TEAM :

Programmation & Développement : Alexandra Zaïnal
Conception & Développement : Baudouin d'Aumeries
Co-Programmation & Développement : Marc-Olivier Méhu
Soutien technique & logistique : Manuel Goepfert

Contact : metmap@orbifly.com




SOURCES & CREDITS :

   NOAA